Ana Sayfa
METAR-TAF:

METAR-TAF

Havaalanları :

Curaçao, Hollanda Antilleri

Enlem: 12-12N, Boylam: 068-58W, yükseklik: 9 m

Güncel hava durumu gözlemi

Rapor saat 14:00 UTC de 31 dakika önce yapıldı.
Rüzgar doğudan 15 kt
Sıcaklık 29°C
Nem 66%
Basınç 1015 hPa
Görüş mesafesi 10 km veya daha fazla
2200 ft yükseklikte az bulutlu

METAR: TNCC 211400Z 10015KT 9999 FEW022 29/22 Q1015 NOSIG

Saat: 10:31 (14:31 UTC)

Tahmin

Rapor saat 09:00 UTC de 5 saat ve 31 dakika önce yapıldı.
Ayın 21'si saat 12 UTC'den ayın 22'si saat 12 UTC'ye kadar geçerli Tahmin
Rüzgar doğudan 15 kt
Görüş mesafesi 10 km veya daha fazla
2000 ft yükseklikte parçalı bulutlu
Olasılık 40% :
Geçici
ayın 21'si saat 14 UTC'den ayın 22'si saat 01 UTC'ye kadar
Rüzgar doğudan 18 kt ve 28 kt'a kadar ani rüzgarlar

TAF: TNCC 210900Z 2112/2212 10015KT 9999 SCT020 PROB40 TEMPO 2114/2201 09018G28KT

4.000'den fazla havaalanı için hava durumu gözlemleri ve tahminleri (METAR ve TAF raporları).

Kullanılabilir istasyonlar harita üzerinde sarı ve kırmızı noktalarla gösterilir.

İstasyonun adını görmek için fareyi noktanın üzerinde gezdirin.

Sonrasında hava gözlem ve tahminlerini görmek için tıklayın.

Haritayı değiştirmek için: yaklaştırmak için siyah artı işaretli yeşil düğmeye ve uzaklaştırmak için de eksi işaretli düğmeye hızla tıklayın; bitişik haritalar için yeşil okları kullanın.


METAR-TAF: